createdAt,value
2022-08-17T00:00:16.583Z,6.43
2022-08-17T00:03:05.702Z,6.20
2022-08-17T00:05:47.952Z,5.37
2022-08-17T00:08:19.256Z,5.67
2022-08-17T00:10:48.549Z,4.70
2022-08-17T00:13:25.322Z,4.53
2022-08-17T00:16:00.872Z,6.10
2022-08-17T00:18:58.207Z,7.17
2022-08-17T00:21:25.156Z,6.60
2022-08-17T00:23:53.910Z,7.13
2022-08-17T00:26:44.383Z,6.40
2022-08-17T00:29:10.600Z,7.07
2022-08-17T00:31:46.865Z,7.43
2022-08-17T00:34:13.729Z,7.27
2022-08-17T00:36:40.674Z,7.67
2022-08-17T00:39:07.511Z,8.03
2022-08-17T00:41:36.042Z,7.83
2022-08-17T00:44:09.647Z,8.23
2022-08-17T00:46:42.019Z,7.80
2022-08-17T00:49:11.512Z,5.80
2022-08-17T00:51:53.035Z,6.47
2022-08-17T00:54:41.917Z,4.87
2022-08-17T00:57:18.071Z,5.40
2022-08-17T01:00:02.613Z,5.33
2022-08-17T01:02:42.067Z,5.23
2022-08-17T01:05:19.472Z,4.90
2022-08-17T01:07:50.894Z,4.80
2022-08-17T01:10:58.658Z,5.30
2022-08-17T01:13:15.652Z,4.80
2022-08-17T01:15:52.212Z,5.80
2022-08-17T01:18:20.004Z,5.50
2022-08-17T01:20:54.975Z,6.10
2022-08-17T01:23:25.621Z,6.20
2022-08-17T01:26:01.739Z,6.37
2022-08-17T01:28:33.385Z,5.07
2022-08-17T01:31:19.624Z,5.43
2022-08-17T01:33:47.485Z,6.60
2022-08-17T01:36:14.690Z,5.47
2022-08-17T01:38:41.651Z,4.47
2022-08-17T01:41:13.783Z,4.60
2022-08-17T01:43:57.185Z,5.33
2022-08-17T01:46:31.276Z,5.57
2022-08-17T01:48:59.520Z,7.30
2022-08-17T01:51:32.601Z,6.13
2022-08-17T01:54:05.402Z,5.17
2022-08-17T01:56:36.642Z,5.30
2022-08-17T01:59:04.528Z,7.57
2022-08-17T02:01:34.666Z,5.80
2022-08-17T02:04:02.159Z,5.23
2022-08-17T02:06:47.071Z,5.50
2022-08-17T02:09:25.463Z,3.93
2022-08-17T02:11:56.396Z,5.07
2022-08-17T02:14:25.305Z,5.37
2022-08-17T02:16:53.008Z,6.37
2022-08-17T02:19:20.388Z,5.53
2022-08-17T02:21:52.428Z,5.73
2022-08-17T02:25:00.952Z,5.00
2022-08-17T02:27:12.792Z,4.80
2022-08-17T02:29:39.855Z,5.23
2022-08-17T02:32:15.155Z,5.13
2022-08-17T02:34:55.767Z,4.50
2022-08-17T02:37:22.769Z,4.40
2022-08-17T02:39:49.708Z,5.00
2022-08-17T02:42:16.607Z,5.20
2022-08-17T02:44:44.315Z,5.50
2022-08-17T02:47:11.829Z,5.93
2022-08-17T02:49:38.765Z,5.03
2022-08-17T02:52:08.430Z,4.90
2022-08-17T02:54:40.471Z,5.00
2022-08-17T02:57:10.363Z,4.97
2022-08-17T02:59:39.706Z,5.20
2022-08-17T03:02:09.851Z,5.97
2022-08-17T03:04:37.762Z,7.07
2022-08-17T03:07:06.612Z,5.50
2022-08-17T03:09:33.663Z,6.00
2022-08-17T03:12:13.440Z,6.80
2022-08-17T03:14:42.971Z,5.40
2022-08-17T03:17:11.283Z,5.90
2022-08-17T03:19:44.760Z,6.60
2022-08-17T03:22:47.910Z,8.17
2022-08-17T03:24:59.089Z,6.80
2022-08-17T03:27:26.458Z,7.43
2022-08-17T03:29:54.329Z,6.87
2022-08-17T03:32:21.949Z,6.60
2022-08-17T03:34:49.123Z,6.23
2022-08-17T03:37:16.482Z,6.80
2022-08-17T03:39:43.685Z,5.37
2022-08-17T03:42:32.246Z,6.23
2022-08-17T03:45:01.230Z,5.57
2022-08-17T03:47:47.075Z,5.40
2022-08-17T03:50:34.809Z,6.53
2022-08-17T03:53:26.617Z,7.00
2022-08-17T03:56:13.024Z,6.07
2022-08-17T03:58:39.928Z,6.10
2022-08-17T04:01:07.988Z,6.23
2022-08-17T04:03:36.262Z,7.10
2022-08-17T04:06:03.840Z,6.97
2022-08-17T04:08:31.512Z,7.63
2022-08-17T04:11:01.464Z,7.80
2022-08-17T04:13:28.641Z,9.10
2022-08-17T04:15:57.279Z,9.50
2022-08-17T04:18:24.681Z,7.30
2022-08-17T04:20:51.606Z,8.00
2022-08-17T04:23:19.698Z,6.70
2022-08-17T04:25:49.636Z,6.97
2022-08-17T04:28:19.636Z,8.13
2022-08-17T04:30:48.698Z,6.73
2022-08-17T04:33:20.059Z,6.17
2022-08-17T04:35:51.417Z,5.70
2022-08-17T04:38:24.406Z,6.63
2022-08-17T04:41:11.078Z,6.77
2022-08-17T04:43:41.151Z,7.00
2022-08-17T04:46:15.380Z,6.33
2022-08-17T04:48:47.789Z,8.10
2022-08-17T04:51:21.281Z,8.17
2022-08-17T04:53:54.335Z,8.37
2022-08-17T04:56:26.151Z,6.63
2022-08-17T04:59:02.588Z,6.70
2022-08-17T05:01:33.579Z,6.33
2022-08-17T05:04:32.866Z,6.57
2022-08-17T05:06:55.736Z,8.27
2022-08-17T05:09:22.936Z,9.77
2022-08-17T05:11:51.473Z,12.67
2022-08-17T05:14:18.356Z,11.53
2022-08-17T05:16:48.175Z,13.03
2022-08-17T05:19:15.101Z,11.33
2022-08-17T05:21:42.000Z,11.17
2022-08-17T05:24:16.734Z,12.87
2022-08-17T05:26:55.740Z,10.33
2022-08-17T05:29:22.609Z,9.13
2022-08-17T05:32:39.479Z,9.50
2022-08-17T05:35:01.003Z,10.03
2022-08-17T05:37:28.470Z,9.67
2022-08-17T05:39:55.639Z,10.47
2022-08-17T05:42:22.776Z,9.80
2022-08-17T05:44:50.294Z,8.27
2022-08-17T05:47:18.401Z,8.00
2022-08-17T05:49:45.660Z,8.67
2022-08-17T05:52:28.619Z,9.67
2022-08-17T05:55:12.527Z,8.63
2022-08-17T05:58:07.575Z,9.77
2022-08-17T06:00:47.084Z,8.80
2022-08-17T06:03:47.824Z,8.70
2022-08-17T06:07:01.460Z,8.20
2022-08-17T06:10:14.558Z,8.83
2022-08-17T06:13:02.748Z,9.03
2022-08-17T06:16:32.994Z,8.60
2022-08-17T06:19:02.305Z,8.80
2022-08-17T06:21:35.776Z,9.10
2022-08-17T06:24:29.717Z,8.10
2022-08-17T06:27:41.206Z,8.40
2022-08-17T06:30:58.432Z,8.13
2022-08-17T06:33:32.662Z,8.00
2022-08-17T06:36:17.485Z,9.47
2022-08-17T06:39:23.183Z,8.10
2022-08-17T06:43:02.000Z,9.30
2022-08-17T06:45:31.308Z,8.27
2022-08-17T06:48:13.192Z,9.03
2022-08-17T06:50:50.997Z,9.40
2022-08-17T06:53:32.911Z,8.43
2022-08-17T06:56:18.940Z,8.37
2022-08-17T06:58:46.805Z,8.60
2022-08-17T07:01:28.384Z,8.43
2022-08-17T07:04:19.008Z,9.37
2022-08-17T07:07:28.448Z,8.80
2022-08-17T07:10:00.807Z,7.93
2022-08-17T07:12:40.861Z,10.23
2022-08-17T07:15:12.633Z,8.60
2022-08-17T07:17:47.432Z,8.87
2022-08-17T07:20:22.640Z,8.00
2022-08-17T07:23:22.517Z,7.83
2022-08-17T07:25:50.554Z,8.10
2022-08-17T07:28:23.332Z,9.63
2022-08-17T07:30:54.957Z,7.67
2022-08-17T07:33:29.221Z,8.80
2022-08-17T07:35:58.076Z,8.20
2022-08-17T07:38:34.065Z,8.30
2022-08-17T07:41:06.566Z,8.07
2022-08-17T07:43:39.290Z,7.87
2022-08-17T07:46:53.769Z,9.20
2022-08-17T07:49:39.857Z,8.37
2022-08-17T07:52:51.034Z,8.63
2022-08-17T07:55:32.870Z,7.73
2022-08-17T07:58:00.454Z,8.53
2022-08-17T08:00:32.205Z,7.78
2022-08-17T08:03:27.262Z,7.22
2022-08-17T08:06:02.389Z,7.40
2022-08-17T08:08:42.662Z,7.05
2022-08-17T08:11:27.877Z,7.43
2022-08-17T08:13:54.828Z,6.68
2022-08-17T08:16:29.527Z,7.43
2022-08-17T08:19:00.796Z,6.32
2022-08-17T08:21:55.140Z,6.07
2022-08-17T08:24:52.149Z,5.47
2022-08-17T08:27:55.577Z,5.22
2022-08-17T08:30:23.514Z,4.70
2022-08-17T08:33:20.627Z,4.25
2022-08-17T08:35:58.799Z,5.35
2022-08-17T08:39:05.249Z,4.45
2022-08-17T08:42:12.899Z,4.07
2022-08-17T08:45:00.719Z,3.72
2022-08-17T08:48:05.142Z,3.78
2022-08-17T08:51:05.182Z,4.68
2022-08-17T08:53:48.937Z,3.45
2022-08-17T08:57:11.499Z,3.40
2022-08-17T08:59:57.644Z,3.38
2022-08-17T09:02:45.556Z,3.65
2022-08-17T09:05:49.277Z,3.42
2022-08-17T09:09:11.426Z,3.30
2022-08-17T09:12:02.220Z,3.30
2022-08-17T09:14:56.743Z,3.53
2022-08-17T09:18:30.373Z,3.45
2022-08-17T09:20:58.746Z,3.17
2022-08-17T09:23:33.480Z,3.00
2022-08-17T09:26:22.683Z,3.10
2022-08-17T09:29:01.371Z,3.92
2022-08-17T09:31:55.219Z,3.42
2022-08-17T09:34:43.439Z,3.35
2022-08-17T09:37:42.509Z,3.15
2022-08-17T09:40:21.214Z,3.30
2022-08-17T09:42:56.321Z,3.30
2022-08-17T09:45:48.344Z,3.22
2022-08-17T09:48:28.224Z,3.30
2022-08-17T09:51:15.483Z,3.72
2022-08-17T09:53:44.731Z,3.20
2022-08-17T09:56:43.742Z,3.60
2022-08-17T09:59:45.514Z,3.40
2022-08-17T10:02:31.965Z,3.13
2022-08-17T10:05:22.618Z,11.50
2022-08-17T10:08:16.214Z,3.15
2022-08-17T10:11:27.965Z,3.55
2022-08-17T10:14:36.555Z,2.95
2022-08-17T10:17:56.599Z,3.63
2022-08-17T10:20:46.972Z,3.80
2022-08-17T10:23:48.594Z,3.72
2022-08-17T10:26:24.899Z,3.42
2022-08-17T10:29:04.848Z,3.92
2022-08-17T10:32:02.363Z,4.03
2022-08-17T10:34:42.148Z,3.78
2022-08-17T10:37:37.879Z,3.90
2022-08-17T10:40:25.831Z,5.45
2022-08-17T10:43:12.019Z,3.65
2022-08-17T10:46:30.648Z,3.50
2022-08-17T10:49:29.812Z,3.17
2022-08-17T10:52:01.861Z,2.92
2022-08-17T10:54:58.720Z,4.00
2022-08-17T10:57:31.990Z,3.67
2022-08-17T11:00:24.193Z,3.72
2022-08-17T11:02:57.637Z,3.22
2022-08-17T11:06:09.417Z,3.50
2022-08-17T11:09:12.178Z,3.20
2022-08-17T11:11:57.766Z,3.28
2022-08-17T11:14:50.388Z,3.25
2022-08-17T11:18:03.507Z,3.45
2022-08-17T11:21:15.830Z,3.53
2022-08-17T11:24:17.986Z,3.75
2022-08-17T11:27:32.262Z,3.38
2022-08-17T11:30:08.083Z,3.42
2022-08-17T11:32:57.147Z,3.95
2022-08-17T11:35:47.580Z,4.70
2022-08-17T11:38:50.296Z,3.72
2022-08-17T11:41:41.349Z,3.85
2022-08-17T11:44:37.658Z,3.83
2022-08-17T11:48:09.030Z,3.78
2022-08-17T11:51:19.025Z,3.70
2022-08-17T11:53:45.916Z,3.42
2022-08-17T11:56:44.020Z,4.70
2022-08-17T11:59:33.137Z,3.40
2022-08-17T12:02:03.010Z,3.65
2022-08-17T12:04:35.312Z,3.30
2022-08-17T12:07:21.135Z,3.70
2022-08-17T12:09:51.613Z,6.15
2022-08-17T12:12:35.847Z,3.53
2022-08-17T12:15:12.012Z,3.97
2022-08-17T12:17:42.634Z,3.33
2022-08-17T12:20:26.183Z,3.50
2022-08-17T12:23:08.543Z,3.80
2022-08-17T12:26:04.100Z,3.50
2022-08-17T12:28:36.835Z,3.42
2022-08-17T12:31:23.038Z,3.28
2022-08-17T12:33:51.704Z,3.35
2022-08-17T12:36:28.665Z,3.47
2022-08-17T12:39:13.922Z,3.03
2022-08-17T12:41:46.926Z,3.25
2022-08-17T12:44:34.512Z,3.38
2022-08-17T12:47:21.956Z,3.78
2022-08-17T12:49:53.598Z,3.70
2022-08-17T12:52:25.689Z,3.78
2022-08-17T12:55:23.054Z,3.42
2022-08-17T12:57:59.669Z,3.50
2022-08-17T13:00:47.398Z,3.10
2022-08-17T13:03:26.407Z,3.30
2022-08-17T13:06:09.333Z,3.58
2022-08-17T13:08:47.922Z,3.40
2022-08-17T13:11:16.062Z,3.40
2022-08-17T13:13:46.591Z,2.90
2022-08-17T13:16:21.355Z,2.53
2022-08-17T13:19:15.227Z,3.10
2022-08-17T13:21:49.724Z,3.53
2022-08-17T13:24:24.902Z,2.67
2022-08-17T13:27:09.594Z,2.47
2022-08-17T13:29:45.484Z,2.90
2022-08-17T13:32:33.588Z,2.58
2022-08-17T13:35:36.457Z,2.88
2022-08-17T13:38:36.204Z,2.83
2022-08-17T13:41:06.506Z,2.70
2022-08-17T13:43:48.605Z,2.63
2022-08-17T13:46:31.129Z,2.85
2022-08-17T13:49:12.636Z,2.63
2022-08-17T13:51:46.622Z,2.65
2022-08-17T13:54:29.212Z,2.92
2022-08-17T13:57:07.297Z,2.55
2022-08-17T13:59:55.745Z,2.78
2022-08-17T14:02:25.978Z,2.95
2022-08-17T14:04:56.713Z,3.25
2022-08-17T14:07:35.881Z,2.75
2022-08-17T14:10:11.983Z,3.13
2022-08-17T14:12:42.967Z,2.97
2022-08-17T14:15:13.947Z,3.50
2022-08-17T14:17:44.426Z,3.40
2022-08-17T14:20:14.207Z,4.30
2022-08-17T14:22:50.500Z,3.13
2022-08-17T14:25:24.778Z,3.60
2022-08-17T14:27:54.042Z,3.05
2022-08-17T14:30:28.957Z,3.65
2022-08-17T14:32:58.961Z,4.10
2022-08-17T14:35:27.999Z,4.13
2022-08-17T14:37:56.360Z,3.08
2022-08-17T14:40:25.360Z,3.40
2022-08-17T14:42:55.507Z,3.42
2022-08-17T14:45:30.044Z,3.25
2022-08-17T14:48:07.670Z,3.50
2022-08-17T14:50:43.994Z,3.90
2022-08-17T14:53:14.663Z,3.42
2022-08-17T14:55:42.419Z,3.92
2022-08-17T14:58:09.489Z,4.53
2022-08-17T15:00:38.496Z,4.68
2022-08-17T15:03:05.735Z,4.55
2022-08-17T15:05:36.658Z,4.50
2022-08-17T15:08:06.121Z,4.50
2022-08-17T15:10:33.849Z,4.15
2022-08-17T15:13:01.117Z,5.40
2022-08-17T15:15:31.571Z,4.93
2022-08-17T15:17:59.926Z,5.03
2022-08-17T15:20:29.727Z,5.05
2022-08-17T15:22:59.064Z,4.75
2022-08-17T15:25:29.830Z,4.88
2022-08-17T15:27:57.488Z,5.05
2022-08-17T15:30:26.557Z,5.07
2022-08-17T15:32:55.477Z,5.90
2022-08-17T15:35:31.105Z,6.97
2022-08-17T15:38:06.528Z,6.68
2022-08-17T15:40:38.860Z,7.10
2022-08-17T15:43:33.855Z,8.18
2022-08-17T15:46:18.681Z,10.27
2022-08-17T15:48:55.563Z,8.35
2022-08-17T15:51:26.511Z,7.07
2022-08-17T15:53:59.868Z,7.13
2022-08-17T15:56:32.572Z,7.95
2022-08-17T15:58:59.991Z,7.45
2022-08-17T16:03:01.200Z,7.90
2022-08-17T16:04:30.085Z,8.70
2022-08-17T16:06:59.395Z,8.23
2022-08-17T16:09:26.821Z,8.45
2022-08-17T16:11:55.866Z,9.93
2022-08-17T16:14:30.318Z,10.13
2022-08-17T16:17:01.080Z,11.50
2022-08-17T16:19:28.051Z,9.00
2022-08-17T16:21:54.936Z,8.35
2022-08-17T16:24:22.004Z,8.93
2022-08-17T16:26:49.399Z,9.23
2022-08-17T16:29:16.638Z,9.70
2022-08-17T16:31:43.982Z,9.15
2022-08-17T16:34:17.457Z,8.35
2022-08-17T16:36:54.584Z,8.63
2022-08-17T16:39:34.266Z,9.20
2022-08-17T16:42:02.692Z,7.95
2022-08-17T16:44:31.896Z,8.73
2022-08-17T16:47:01.292Z,10.13
2022-08-17T16:49:36.815Z,9.25
2022-08-17T16:52:12.495Z,9.60
2022-08-17T16:54:43.639Z,10.77
2022-08-17T16:57:13.078Z,9.85
2022-08-17T16:59:43.617Z,10.32
2022-08-17T17:02:27.624Z,10.85
2022-08-17T17:05:09.402Z,9.38
2022-08-17T17:08:12.558Z,8.75
2022-08-17T17:10:50.681Z,11.02
2022-08-17T17:13:24.066Z,10.35
2022-08-17T17:16:16.872Z,9.10
2022-08-17T17:19:35.270Z,11.57
2022-08-17T17:22:38.713Z,12.27
2022-08-17T17:25:29.205Z,12.73
2022-08-17T17:28:19.365Z,11.90
2022-08-17T17:31:10.548Z,12.80
2022-08-17T17:33:48.800Z,11.45
2022-08-17T17:36:40.911Z,11.70
2022-08-17T17:39:18.938Z,11.35
2022-08-17T17:41:53.814Z,11.75
2022-08-17T17:44:29.928Z,11.68
2022-08-17T17:47:00.524Z,11.75
2022-08-17T17:49:39.726Z,10.95
2022-08-17T17:52:31.834Z,11.77
2022-08-17T17:55:44.887Z,12.70
2022-08-17T17:59:12.794Z,14.07
2022-08-17T18:01:55.646Z,11.25
2022-08-17T18:04:48.661Z,11.15
2022-08-17T18:07:44.383Z,10.65
2022-08-17T18:10:35.549Z,10.55
2022-08-17T18:13:29.889Z,11.35
2022-08-17T18:16:00.638Z,11.32
2022-08-17T18:18:46.500Z,11.32
2022-08-17T18:21:23.900Z,9.93
2022-08-17T18:24:01.636Z,11.18
2022-08-17T18:26:55.338Z,11.60
2022-08-17T18:29:45.629Z,10.02
2022-08-17T18:32:30.012Z,10.02
2022-08-17T18:35:02.505Z,10.15
2022-08-17T18:37:54.127Z,10.25
2022-08-17T18:40:27.405Z,9.00
2022-08-17T18:43:13.894Z,10.93
2022-08-17T18:45:49.523Z,8.27
2022-08-17T18:48:26.736Z,9.57
2022-08-17T18:51:03.375Z,10.20
2022-08-17T18:53:40.800Z,9.10
2022-08-17T18:56:33.179Z,10.05
2022-08-17T18:59:39.738Z,9.27
2022-08-17T19:02:24.894Z,10.35
2022-08-17T19:05:13.508Z,9.93
2022-08-17T19:07:46.966Z,11.43
2022-08-17T19:10:31.344Z,11.13
2022-08-17T19:13:12.591Z,12.55
2022-08-17T19:16:11.752Z,11.63
2022-08-17T19:19:08.802Z,10.07
2022-08-17T19:21:55.880Z,9.95
2022-08-17T19:24:30.295Z,10.38
2022-08-17T19:27:46.212Z,11.30
2022-08-17T19:30:16.627Z,9.13
2022-08-17T19:32:43.763Z,10.23
2022-08-17T19:35:17.160Z,10.20
2022-08-17T19:38:35.036Z,12.23
2022-08-17T19:41:30.423Z,10.40
2022-08-17T19:44:20.473Z,10.30
2022-08-17T19:47:10.458Z,11.80
2022-08-17T19:50:22.293Z,10.63
2022-08-17T19:53:10.502Z,11.97
2022-08-17T19:56:02.865Z,13.77
2022-08-17T19:58:58.167Z,12.10
2022-08-17T20:02:09.057Z,10.17
2022-08-17T20:04:45.047Z,9.57
2022-08-17T20:07:37.245Z,12.17
2022-08-17T20:10:20.503Z,10.50
2022-08-17T20:12:53.317Z,12.30
2022-08-17T20:15:33.138Z,11.30
2022-08-17T20:18:05.478Z,11.27
2022-08-17T20:20:42.722Z,11.30
2022-08-17T20:23:48.451Z,10.60
2022-08-17T20:26:59.674Z,10.07
2022-08-17T20:29:53.228Z,10.90
2022-08-17T20:32:26.804Z,11.70
2022-08-17T20:36:00.469Z,9.40
2022-08-17T20:38:53.869Z,11.73
2022-08-17T20:41:31.061Z,9.83
2022-08-17T20:43:58.719Z,11.13
2022-08-17T20:46:37.864Z,13.10
2022-08-17T20:49:47.065Z,12.40
2022-08-17T20:52:45.336Z,13.33
2022-08-17T20:55:34.134Z,11.63
2022-08-17T20:58:16.431Z,18.50
2022-08-17T21:00:48.677Z,16.53
2022-08-17T21:03:22.538Z,17.97
2022-08-17T21:06:16.989Z,17.07
2022-08-17T21:08:57.901Z,14.93
2022-08-17T21:12:03.067Z,14.00
2022-08-17T21:14:56.198Z,12.17
2022-08-17T21:17:46.483Z,15.23
2022-08-17T21:20:22.694Z,17.60
2022-08-17T21:23:24.662Z,17.37
2022-08-17T21:26:18.096Z,18.73
2022-08-17T21:29:31.332Z,16.63
2022-08-17T21:31:59.524Z,16.93
2022-08-17T21:35:04.722Z,15.27
2022-08-17T21:37:48.042Z,14.60
2022-08-17T21:40:18.059Z,17.97
2022-08-17T21:42:53.980Z,15.50
2022-08-17T21:45:31.185Z,16.83
2022-08-17T21:48:17.268Z,16.00
2022-08-17T21:51:01.594Z,15.90
2022-08-17T21:53:53.652Z,16.80
2022-08-17T21:56:39.684Z,16.63
2022-08-17T21:59:21.664Z,15.40
2022-08-17T22:01:58.472Z,12.97
2022-08-17T22:04:31.941Z,14.80
2022-08-17T22:07:03.457Z,17.17
2022-08-17T22:09:47.929Z,17.23
2022-08-17T22:12:21.865Z,14.60
2022-08-17T22:15:01.096Z,17.20
2022-08-17T22:17:35.768Z,17.77
2022-08-17T22:20:14.359Z,16.93
2022-08-17T22:23:08.839Z,12.60
2022-08-17T22:25:59.980Z,14.73
2022-08-17T22:28:46.414Z,12.77
2022-08-17T22:31:28.101Z,16.13
2022-08-17T22:33:59.732Z,18.13
2022-08-17T22:36:30.970Z,16.80
2022-08-17T22:39:08.342Z,17.80
2022-08-17T22:41:48.308Z,19.57
2022-08-17T22:44:37.652Z,18.90
2022-08-17T22:47:27.632Z,21.83
2022-08-17T22:50:00.178Z,23.10
2022-08-17T22:53:03.508Z,21.33
2022-08-17T22:55:52.341Z,19.30
2022-08-17T22:58:43.279Z,21.10
2022-08-17T23:01:35.420Z,15.50
2022-08-17T23:04:06.972Z,16.30
2022-08-17T23:06:36.820Z,16.17
2022-08-17T23:09:09.809Z,14.57
2022-08-17T23:11:49.894Z,13.10
2022-08-17T23:14:21.387Z,13.83
2022-08-17T23:16:52.769Z,14.13
2022-08-17T23:19:21.624Z,14.47
2022-08-17T23:21:52.359Z,12.20
2022-08-17T23:24:29.777Z,11.60
2022-08-17T23:26:58.924Z,14.33
2022-08-17T23:29:29.403Z,11.87
2022-08-17T23:31:59.902Z,15.37
2022-08-17T23:34:28.601Z,14.33
2022-08-17T23:36:55.982Z,17.47
2022-08-17T23:39:28.219Z,18.57
2022-08-17T23:41:58.906Z,19.40
2022-08-17T23:44:28.657Z,21.63
2022-08-17T23:46:56.119Z,17.93
2022-08-17T23:49:24.990Z,16.80
2022-08-17T23:51:54.608Z,16.23
2022-08-17T23:54:33.539Z,15.77
2022-08-17T23:57:02.639Z,15.73
2022-08-17T23:59:29.926Z,18.73
